Latest Coastal Weather Observations for Portland Airport

IDS60701

Issued at 1:21 am CST Tuesday 26 May 2015 (issued every 10 minutes, with the page automatically refreshed every 10 minutes)

About coastal observations | Map of coastal stations | Coastal observations for SA | Marine services | Other Formats
Station Details ID: 090171 Name: CASHMORE AIRPORT Lat: -38.31 Lon: 141.47 Height: 80.9 m
Data from the previous 72 hours. | See also: Recent months at Portland Airport
Date/Time
CST
Temp

°C
Wind Pressure Rain
since 9am
mm
Weather Cloud Vis
km
Sea
Height
m
Swell
Dir
 
Speed
knots
Gust
knots
hPa Trend Height
m
Period
s
Dir
26/01:00am 6.9 NNW 5 6 1028.7 - 0.0 - - 10 - - - -
26/12:30am 8.0 N 6 8 1028.5 - 0.0 - - 10 - - - -
26/12:00am 8.1 N 5 7 1028.8 - 0.0 - - 10 - - - -
 
Date/Time
CST
Temp

°C
Wind Pressure Rain
since 9am
mm
Weather Cloud Vis
km
Sea
Height
m
Swell
Dir
 
Speed
knots
Gust
knots
hPa Trend Height
m
Period
s
Dir
25/11:30pm 8.7 NNW 7 8 1029.0 - 0.0 - - 10 - - - -
25/11:00pm 7.9 NNW 5 6 1029.0 - 0.0 - - 10 - - - -
25/10:50pm 7.5 NNW 4 5 1028.8 - 0.0 - - 10 - - - -
25/10:30pm 5.3 CALM 0 0 1028.8 - 0.0 - - 5 - - - -
25/10:26pm 5.2 CALM 0 3 1028.8 - 0.0 - - 6 - - - -
25/10:17pm 6.3 NNW 4 5 1028.8 - 0.0 - - 10 - - - -
25/10:00pm 5.7 NNW 4 6 1029.0 - 0.0 - - 1 - - - -
25/09:38pm 6.4 NNW 4 5 1029.1 - 0.0 - - 6 - - - -
25/09:30pm 6.5 NNW 4 5 1029.2 - 0.0 - - 10 - - - -
25/09:00pm 7.2 NNW 4 5 1029.4 - 0.0 - - 10 - - - -
25/08:30pm 7.2 WSW 4 4 1029.4 - 0.0 - - 10 - - - -
25/08:00pm 7.1 CALM 0 0 1029.3 - 0.0 - - 10 - - - -
25/07:30pm 8.2 WSW 3 4 1029.1 - 0.0 - - 10 - - - -
25/07:00pm 7.5 CALM 0 0 1029.1 - 0.0 - - 10 - - - -
25/06:30pm 8.5 CALM 0 0 1029.0 - 0.0 - - 10 - - - -
25/06:00pm 9.3 CALM 0 0 1028.8 - 0.0 - - 10 - - - -
25/05:30pm 10.8 CALM 0 0 1028.5 - 0.0 - - 10 - - - -
25/05:00pm 12.9 CALM 0 0 1028.4 - 0.0 - - 10 - - - -
25/04:30pm 14.3 W 3 5 1028.1 - 0.0 - - 10 - - - -
25/04:00pm 16.1 W 4 5 1028.0 - 0.0 - - 10 - - - -
25/03:30pm 16.7 W 4 5 1027.9 - 0.0 - - 10 - - - -
25/03:00pm 17.4 W 4 5 1027.8 - 0.0 - - 10 - - - -
25/02:30pm 17.4 NW 4 7 1027.8 - 0.0 - - 10 - - - -
25/02:00pm 17.3 NNW 5 7 1027.9 - 0.0 - - 10 - - - -
25/01:30pm 17.0 NNW 6 8 1028.1 - 0.0 - - 10 - - - -
25/01:00pm 17.1 N 6 8 1028.2 - 0.0 - - 10 - - - -
25/12:30pm 16.7 NNW 6 7 1028.5 - 0.0 - - 10 - - - -
25/12:00pm 16.5 NNW 6 9 1028.9 - 0.0 - - 10 - - - -
25/11:30am 16.0 NNW 8 11 1029.4 - 0.0 - - 10 - - - -
25/11:00am 15.5 NW 7 10 1029.8 - 0.0 - - 10 - - - -
25/10:30am 14.9 NW 8 11 1030.2 - 0.0 - - 10 - - - -
25/10:00am 14.5 NW 7 10 1030.3 - 0.0 - - 10 - - - -
25/09:30am 13.9 NNW 6 9 1030.2 - 0.0 - - 10 - - - -
25/09:00am 12.5 NNW 5 7 1030.1 - 0.0 - - 10 - - - -
25/08:30am 10.7 N 5 7 1030.2 - 0.0 - - 10 - - - -
25/08:00am 8.5 NNW 8 9 1030.2 - 0.0 - - 10 - - - -
25/07:30am 6.7 N 7 8 1030.2 - 0.0 - - 10 - - - -
25/07:00am 5.8 N 6 7 1030.0 - 0.0 - - 10 - - - -
25/06:30am 5.9 N 5 6 1029.8 - 0.0 - - 10 - - - -
25/06:00am 6.5 N 4 6 1029.6 - 0.0 - - 10 - - - -
25/05:30am 7.5 N 5 6 1029.2 - 0.0 - Partly cloudy 10 - - - -
25/05:00am 7.9 NNW 5 7 1029.3 - 0.0 - - 10 - - - -
25/04:30am 8.3 NNW 6 8 1029.1 - 0.0 - - 10 - - - -
25/04:00am 7.2 N 4 4 1029.1 - 0.0 - - 10 - - - -
25/03:30am 7.8 N 6 8 1029.0 - 0.0 - - 10 - - - -
25/03:00am 7.2 N 3 5 1028.9 - 0.0 - - 10 - - - -
25/02:30am 7.0 N 2 4 1028.8 - 0.0 - Cloudy 10 - - - -
25/02:00am 7.4 N 3 4 1028.8 - 0.0 - - 10 - - - -
25/01:30am 7.8 N 6 7 1028.8 - 0.0 - - 10 - - - -
25/01:00am 7.8 NNE 6 7 1028.9 - 0.0 - - 10 - - - -
25/12:30am 8.2 N 3 4 1029.0 - 0.0 - - 10 - - - -
25/12:00am 8.3 NNE 5 7 1029.1 - 0.0 - - 10 - - - -
 
Date/Time
CST
Temp

°C
Wind Pressure Rain
since 9am
mm
Weather Cloud Vis
km
Sea
Height
m
Swell
Dir
 
Speed
knots
Gust
knots
hPa Trend Height
m
Period
s
Dir
24/11:30pm 8.7 N 6 8 1029.2 - 0.0 - Cloudy 10 - - - -
24/11:00pm 9.0 N 5 7 1029.2 - 0.0 - - 10 - - - -
24/10:30pm 8.7 N 7 8 1029.3 - 0.0 - - 10 - - - -
24/10:00pm 8.3 N 4 5 1029.7 - 0.0 - - 10 - - - -
24/09:30pm 8.0 CALM 0 0 1029.8 - 0.0 - - 10 - - - -
24/09:00pm 8.4 N 1 3 1029.8 - 0.0 - - 10 - - - -
24/08:30pm 8.8 N 5 6 1029.8 - 0.0 - Cloudy 10 - - - -
24/08:00pm 8.5 N 4 6 1029.6 - 0.0 - - 10 - - - -
24/07:30pm 8.4 N 4 5 1029.6 - 0.0 - - 10 - - - -
24/07:00pm 8.7 N 5 7 1029.7 - 0.0 - - 10 - - - -
24/06:30pm 9.0 N 6 7 1029.5 - 0.0 - - 10 - - - -
24/06:00pm 8.3 N 3 5 1029.4 - 0.0 - - 10 - - - -
24/05:30pm 9.5 N 4 4 1029.2 - 0.0 - Cloudy 10 - - - -
24/05:00pm 9.9 N 3 4 1029.0 - 0.0 - - 10 - - - -
24/04:30pm 11.3 NNW 3 3 1028.9 - 0.0 - - 10 - - - -
24/04:00pm 12.3 NNW 5 6 1028.8 - 0.0 - - 10 - - - -
24/03:30pm 12.9 N 6 8 1028.7 - 0.0 - - 10 - - - -
24/03:00pm 13.3 N 6 8 1028.4 - 0.0 - - 10 - - - -
24/02:30pm 14.4 N 4 6 1028.4 - 0.0 - Partly cloudy 10 - - - -
24/02:00pm 13.1 NNW 7 8 1028.6 - 0.0 - - 10 - - - -
24/01:30pm 13.2 NNW 6 9 1028.7 - 0.0 - - 10 - - - -
24/01:00pm 13.2 NNW 8 12 1029.0 - 0.0 - - 10 - - - -
24/12:30pm 14.1 NNW 7 10 1029.1 - 0.0 - - 10 - - - -
24/12:00pm 12.6 N 8 9 1029.4 - 0.0 - - 10 - - - -
24/11:30am 11.7 N 7 10 1029.8 - 0.0 - Cloudy 10 - - - -
24/11:00am 11.2 N 6 8 1030.1 - 0.0 - - 10 - - - -
24/10:30am 9.7 N 8 10 1030.4 - 0.0 - - 10 - - - -
24/10:00am 8.7 N 6 8 1030.5 - 0.0 - - 10 - - - -
24/09:30am 7.3 NNE 5 7 1030.6 - 0.0 - - 10 - - - -
24/09:00am 4.8 N 4 5 1030.9 - 0.0 - - 10 - - - -
24/08:30am 3.9 N 6 8 1030.6 - 0.2 - Cloudy 10 - - - -
24/08:00am 3.8 N 7 9 1030.4 - 0.2 - - 10 - - - -
24/07:30am 3.6 N 7 8 1030.2 - 0.2 - - 10 - - - -
24/07:00am 2.7 N 8 9 1030.0 - 0.2 - - 10 - - - -
24/06:30am 2.6 N 7 8 1029.9 - 0.2 - - 10 - - - -
24/06:00am 3.0 N 6 8 1029.5 - 0.2 - - 10 - - - -
24/05:47am 2.8 N 5 7 1029.6 - 0.2 - - 10 - - - -
24/05:30am 2.6 N 5 6 1029.5 - 0.2 Recent precip. Mostly clear 5 - - - -
24/05:17am 3.0 N 6 8 1029.4 - 0.2 - Partly cloudy 7 - - - -
24/05:00am 3.4 N 7 8 1029.4 - 0.2 - Partly cloudy 2 - - - -
24/04:33am 3.9 N 5 7 1029.1 - 0.0 - Partly cloudy 0.6 - - - -
24/04:30am 3.8 N 6 7 1029.1 - 0.0 - Partly cloudy 0.8 - - - -
24/04:00am 3.7 NNE 6 7 1029.2 - 0.0 - - 3 - - - -
24/03:30am 4.0 NNE 6 7 1029.2 - 0.0 - - 5 - - - -
24/03:21am 4.1 NNE 5 6 1029.3 - 0.0 - - 6 - - - -
24/03:00am 5.1 NE 4 5 1029.4 - 0.0 - - 10 - - - -
24/02:30am 5.0 NE 4 5 1029.8 - 0.0 - Mostly clear 10 - - - -
24/02:00am 5.9 NE 5 7 1029.7 - 0.0 - - 10 - - - -
24/01:30am 6.2 ENE 7 9 1029.7 - 0.0 - - 10 - - - -
24/01:00am 5.5 ENE 5 7 1029.9 - 0.0 - - 10 - - - -
24/12:30am 5.3 NNE 3 5 1030.4 - 0.0 - - 10 - - - -
24/12:00am 6.1 NE 5 8 1030.4 - 0.0 - - 10 - - - -
 
Date/Time
CST
Temp

°C
Wind Pressure Rain
since 9am
mm
Weather Cloud Vis
km
Sea
Height
m
Swell
Dir
 
Speed
knots
Gust
knots
hPa Trend Height
m
Period
s
Dir
23/11:30pm 6.4 NE 5 7 1030.4 - 0.0 - - 10 - - - -
23/11:00pm 4.7 ENE 2 4 1030.6 - 0.0 - - 10 - - - -
23/10:30pm 6.5 ENE 4 5 1030.6 - 0.0 - - 10 - - - -
23/10:00pm 6.8 ENE 5 8 1030.5 - 0.0 - - 10 - - - -
23/09:30pm 6.8 ENE 4 6 1030.9 - 0.0 - - 10 - - - -
23/09:00pm 7.3 ENE 4 7 1031.0 - 0.0 - Partly cloudy 10 - - - -
23/08:30pm 7.5 ENE 3 4 1031.3 - 0.0 - Mostly clear 10 - - - -
23/08:00pm 8.1 ENE 5 7 1031.4 - 0.0 - Cloudy 10 - - - -
23/07:30pm 8.9 ENE 4 7 1031.6 - 0.0 - Cloudy 10 - - - -
23/07:00pm 8.7 E 2 6 1031.7 - 0.0 - Cloudy 10 - - - -
23/06:30pm 8.6 E 4 5 1031.7 - 0.0 - Cloudy 10 - - - -
23/06:00pm 8.7 E 6 9 1031.2 - 0.0 - Partly cloudy 10 - - - -
23/05:30pm 9.4 E 7 11 1031.3 - 0.0 - Mostly cloudy 10 - - - -
23/05:00pm 9.9 E 6 8 1031.3 - 0.0 - Cloudy 10 - - - -
23/04:30pm 10.5 E 5 7 1031.4 - 0.0 - Cloudy 10 - - - -
23/04:00pm 11.1 E 6 9 1031.4 - 0.0 - Partly cloudy 10 - - - -
23/03:30pm 11.4 E 7 11 1031.3 - 0.0 - Partly cloudy 10 - - - -
23/03:00pm 11.5 E 7 10 1031.2 - 0.0 - Partly cloudy 10 - - - -
23/02:30pm 11.9 E 8 12 1031.3 - 0.0 - Partly cloudy 10 - - - -
23/02:00pm 11.4 E 8 12 1031.5 - 0.0 - Partly cloudy 10 - - - -
23/01:30pm 12.2 ESE 8 12 1031.5 - 0.0 - Cloudy 10 - - - -
23/01:00pm 12.5 E 7 10 1031.8 - 0.0 - Cloudy 10 - - - -
23/12:30pm 12.0 E 8 12 1032.0 - 0.0 - Partly cloudy 10 - - - -
23/12:00pm 12.4 E 9 15 1032.3 - 0.0 - Partly cloudy 10 - - - -
23/11:30am 12.1 ESE 8 15 1032.6 - 0.0 - Mostly cloudy 10 - - - -
23/11:00am 11.3 ESE 8 12 1033.3 - 0.0 - Cloudy 10 - - - -
23/10:30am 11.3 ESE 8 12 1033.8 - 0.0 - Cloudy 10 - - - -
23/10:00am 11.2 SE 8 11 1033.8 - 0.0 - Cloudy 10 - - - -
23/09:30am 11.3 E 7 11 1033.8 - 0.0 - Cloudy 10 - - - -
23/09:00am 11.0 E 6 8 1033.8 - 0.0 - Cloudy 10 - - - -
23/08:30am 10.6 ESE 4 5 1033.9 - 0.0 - Cloudy 10 - - - -
23/08:00am 10.0 ESE 3 5 1033.6 - 0.0 - Cloudy 10 - - - -
23/07:30am 9.8 ESE 5 8 1033.3 - 0.0 - Cloudy 10 - - - -
23/07:00am 9.6 ESE 5 8 1033.2 - 0.0 - Cloudy 10 - - - -
23/06:30am 9.5 SE 3 4 1033.0 - 0.0 - Cloudy 10 - - - -
23/06:00am 9.8 E 5 8 1032.9 - 0.0 - Cloudy 10 - - - -
23/05:30am 9.8 SE 4 7 1032.9 - 0.0 - Cloudy 10 - - - -
23/05:00am 9.7 ESE 5 8 1032.9 - 0.0 - Cloudy 10 - - - -
23/04:30am 9.7 ESE 5 7 1032.7 - 0.0 - Cloudy 10 - - - -
23/04:00am 9.8 ESE 6 9 1032.6 - 0.0 - Cloudy 10 - - - -
23/03:30am 9.6 SE 5 7 1032.5 - 0.0 - Cloudy 10 - - - -
23/03:00am 9.8 ESE 4 5 1032.7 - 0.0 - Cloudy 10 - - - -
23/02:30am 9.8 ESE 5 8 1032.5 - 0.0 - Cloudy 10 - - - -
23/02:00am 9.4 ESE 3 4 1032.7 - 0.0 - Cloudy 10 - - - -
23/01:30am 9.4 SE 5 7 1032.7 - 0.0 - Cloudy 10 - - - -
23/01:00am 9.1 ESE 4 5 1032.8 - 0.0 - Cloudy 10 - - - -

Other Formats:

Comma delimited format used in spreadsheet applications
http://www.bom.gov.au/fwo/IDS60701/IDS60701.94828.axf

JavaScript Object Notation format (JSON) in row-major order
http://www.bom.gov.au/fwo/IDS60701/IDS60701.94828.json